CheckWX is a tool to help pilots better visualize weather data.  It is not intended as a substitute for an official pre-flight weather briefing.

02:37:24 UTC

KBRD METAR
Brainerd Lakes Regional Airport
Brainerd, Minnesota, USA
Current

44 mins ago

KBRD 180153Z AUTO 00000KT 10SM CLR M12/M17 A3015 RMK AO2 SLP240 T11171167
Observed
Feb-18 @ 01:53 UTC
Visibility
10 SM
Flight Rules
VFR
Cloud Levels
  • Clear skies
Temperature
-12°C / 10°F
Dewpoint
-17°C / 1°F
Humidity
67%
Altimeter
30.15" Hg
Pressure
1024 hPa
Previous

2 hours ago

KBRD 180053Z AUTO 01003KT 10SM BKN100 M08/M16 A3014 RMK AO2 SLP234 T10831156
Observed
Feb-18 @ 00:53 UTC
Wind
  • 010° at 3 KTS
Visibility
10 SM
Flight Rules
VFR
Cloud Levels
  • Broken at 10,000' AGL
Temperature
-8°C / 18°F
Dewpoint
-16°C / 3°F
Humidity
53%
Altimeter
30.14" Hg
Pressure
1023.4 hPa
Previous

3 hours ago

KBRD 172353Z AUTO 05003KT 9SM CLR M08/M16 A3011 RMK AO2 SLP224 T10781156 11039 21078 53013
Observed
Feb-17 @ 23:53 UTC
Wind
  • 050° at 3 KTS
Visibility
9 SM
Flight Rules
VFR
Cloud Levels
  • Clear skies
Temperature
-8°C / 18°F
Dewpoint
-16°C / 3°F
Humidity
53%
Altimeter
30.11" Hg
Pressure
1022.4 hPa